Terminal Aerodrome Forecast
Issued by NWS

Home | Current Version | Previous Version | Text Only | Print | Product List | Glossary On
Versions: 1 2 3 4 5 6 7 8 9 10 11 12 13 14 15 16 17 18 19 20 21 22
000
FTUS41 KBTV 271737
TAFSLK
TAF
KSLK 271737Z 2718/2818 25010G23KT P6SM BKN045 OVC060
     FM272200 28004KT P6SM BKN040
     FM280400 00000KT P6SM SCT130
     FM281600 18009KT P6SM SCT050
     FM281700 18011KT P6SM BKN045=

USA.gov is the U.S. government's official web portal to all federal, state and local government web resources and services.